默认 日期 大小 文件数 浏览量 最新下载 xml
ddr-磁力链接相关资源由用户搜索指令自动获取,结果来源于网络,本站不存储任何资料,亦不承担任何责任,请于24小时内删除,搜索到11221个磁力,显示前4000条数据,用时6ms。
    ... - x264 - Eng Sub - DTS [DDR].mkv": 31362806, "Goynar Baksho (2013 ... x264 - Eng Sub - DTS [DDR].mkv": 34697681}, "Screens": {"1.png ... x264 - Eng Sub - DTS [DDR].gif": 38682, "Goynar Baksho (2013 ... - x264 - Eng Sub - DTS [DDR].mkv": 3237718418, "Goynar Baksho (2013 ...
创建时间: 2018-12-29 14:50:21 大小:3.09 GB 文件数量:26 热度:10 最近下载:2025-09-19 08:45:01
    {"Killer McCoy (1947) Xvid 1cd - Mickey Rooney, Ann Blyth [DDR].avi": 733102080}
创建时间: 2018-12-29 15:00:06 大小:699.14 MB 文件数量:1 热度:11 最近下载:2024-12-26 02:48:04
    {"! Torrent Exclusively for DesiTorrents.com & ExtraTorrent.cc.txt": 58, "Shirley.Temple.3_Xvid_Pardon.my.Pups_Merrily.Yours_Whats.to.do.[DDR].avi": 629444608}
创建时间: 2018-12-29 15:12:49 大小:600.29 MB 文件数量:2 热度:7 最近下载:2024-11-01 08:46:02
    ... ": {"en-i-me-main-dvdrip-ddr.srt": 228524}, "sample": {"smpl-1cd ... -i-me-main-dvdrip-xvid-ddr.avi": 11474944}, "screens": {"1.png ... -i-me-main-dvdrip-xvid-ddr.avi": 732487680, "1cd-i-me ... -main-dvdrip-xvid-ddr.avi.txt": 5974}
创建时间: 2018-12-29 15:15:34 大小:711.12 MB 文件数量:13 热度:6 最近下载:2025-02-24 06:48:02
    {"A DDR Release !!!.txt": 287, "Torrent downloaded ... HEVC10 Multi DTSHD 5.1 -DDR.mkv": 49237185200, "sample-Fantastic Four ... HEVC10 Multi DTSHD 5.1 -DDR.mkv": 252010561}
创建时间: 2018-12-29 15:23:59 大小:46.09 GB 文件数量:4 热度:33 最近下载:2025-07-30 10:53:04
    ... Desert Mermaid -DVDRip - x264 - 720p - [DDR].nfo": 9724, "Jalpari - The Desert ... Mermaid - DVDRip - x264 - 720p - [DDR].mkv": 2864975572, "(Sample) Jalpari - The ... Desert Mermaid - DVDRip - x264 - 720p - [DDR].mkv": 14097429}
创建时间: 2018-12-29 15:52:06 大小:2.68 GB 文件数量:10 热度:9 最近下载:2025-09-12 10:36:17
    ... PDVDRip - XviD - 1CDRip - [DDR].avi": 728356864, "Mel Karade Rabba ... PDVDRip - XviD - 1CDRip - [DDR].gif": 41590, "Mel Karade Rabba ... - PDVDRip - XviD - 1CDRip - [DDR].avi": 6901760, "Mel Karade Rabba ... - PDVDRip - XviD - 1CDRip - [DDR]": {"1.png": 200972, "2.png ...
创建时间: 2018-12-29 16:00:27 大小:703.02 MB 文件数量:14 热度:6 最近下载:2025-02-21 12:38:01
    {"Read This Guide First.txt": 195, "Downloaded from www.scenetime.com.txt": 195, "Hum Saath Saath Hain - DVDRip - x264 - 1CDRip - [DDR].mkv": 726909865}
创建时间: 2018-12-29 16:03:27 大小:693.24 MB 文件数量:3 热度:9 最近下载:2025-09-01 12:22:06
    {"VIDEO_TS.BUP": 6144, "VIDEO_TS.IFO": 6144, "VTS_01_0.BUP": 100352, "VTS_01_0.IFO": 100352, "VTS_01_0.VOB": 366592, "VTS_01_1.VOB": 1073739776, "VTS_01_2.VOB": 1073739776, "VTS_01_3.VOB": 1073739776, "VTS_01_4.VOB": 1073739776, "VTS_01_5.VOB": 408408064, ...
创建时间: 2018-12-29 16:27:20 大小:4.41 GB 文件数量:18 热度:13 最近下载:2025-09-14 00:30:02
    {"A DDR Exclusive Release.txt": 28, "Kama Sutra A Tale of Love 1996 HQ 1080p Blu-ray x264 DTS-HDMA 2.0 ESub -DDR.mkv": 9806315723, "(sample) Kama Sutra A Tale of Love 1996 HQ 1080p Blu-ray x264 DTS-HDMA 2.0 ESub -DDR.mkv": 63493857}
创建时间: 2018-12-29 16:32:03 大小:9.19 GB 文件数量:3 热度:28 最近下载:2025-08-02 10:08:14
    ... x264 - 5.1 AAC - EngSub [DDR-ExclusivE].mkv": 13044200}, "Screens": {"1 ... 5.1 AAC - Eng Sub [DDR-ExclusivE].idx": 74833, "Shunyo ... - Eng Sub [DDR-ExclusivE].sub": 5531648}, "A DDR Release !!.txt": 377 ... 5.1 AAC - Eng Sub [DDR-ExclusivE].mkv": 732913112, "Shunyo ...
创建时间: 2018-12-29 16:40:32 大小:723.44 MB 文件数量:27 热度:7 最近下载:2024-12-08 04:29:01
    {"A DDR Release !!!.txt": 287, "Torrent downloaded from Desitorrents.com.txt": 28, "RAEES 2017 1080p HDLight WebRip x264 AAC 5.1 -DDR.mkv": 3397162279, "sample-RAEES 2017 1080p HDLight WebRip x264 AAC 5.1 -DDR.mkv": 17341033}
创建时间: 2018-12-29 16:42:03 大小:3.18 GB 文件数量:4 热度:6 最近下载:2025-02-19 20:56:03
    ... ) Xvid 1cd-Subs-Eng-Esp [DDR].avi": 734081024, "Dean Martin & Jerry ... ) Xvid 1cd-Subs-Eng-Esp [DDR].idx": 138322, "Dean Martin & Jerry ... ) Xvid 1cd-Subs-Eng-Esp [DDR].sub": 12351488, "Dean Martin & Jerry ... ) Xvid 1cd-Subs-Eng-Esp [DDR].vobsub": 301}
创建时间: 2018-12-29 17:05:29 大小:731.99 MB 文件数量:5 热度:13 最近下载:2025-05-03 07:50:03
    ... . Jannat 2 (2012) - [DDR].nfo": 1514, "[DDR] Jannat 2 - 01 - Tu ... Rab Ka Shukrana.mp3": 9829975, "[DDR] Jannat 2 - 05 - Jannatein ... Kahan.mp3": 8004079, "[DDR] Jannat 2 - 03 - Tujhe ... Shukrana (Reprise).mp3": 9206367, "[DDR] Jannat 2 - 07 - Jannatein ...
创建时间: 2018-12-29 17:15:01 大小:86.61 MB 文件数量:18 热度:9 最近下载:2025-04-03 10:23:02
    {"Scan": {"Schuetz - Kleine Geistliche Konzerte 3_Back.tif": 39413558, "Schuetz - Kleine Geistliche Konzerte 3_Face.tif": 39578672, "Schuetz - Kleine Geistliche Konzerte 3_Side1.tif": 7206714, "Schuetz - Kleine Geistliche Konzerte 3_Side2.tif": 7206714}, " ...
创建时间: 2018-12-29 17:36:32 大小:1.94 GB 文件数量:8 热度:8 最近下载:2024-12-21 06:44:01
    {"VIDEO_TS.BUP": 14336, "VIDEO_TS.IFO": 14336, "VIDEO_TS.VOB": 116736, "VTS_01_0.BUP": 67584, "VTS_01_0.IFO": 67584, "VTS_01_0.VOB": 18739200, "VTS_01_1.VOB": 16310272, "VTS_02_0.BUP": 77824, "VTS_02_0.IFO": 77824, "VTS_02_0.VOB": 116736, "VTS_02_1.VOB": ...
创建时间: 2018-12-29 17:37:51 大小:4.15 GB 文件数量:15 热度:13 最近下载:2025-09-16 18:06:01
    ... 1CDRIP x264 AAC 2.0 [DDR].mkv": 731762776}
创建时间: 2018-12-29 18:27:26 大小:704.42 MB 文件数量:13 热度:8 最近下载:2025-02-09 01:40:02
    {"TRAILER - Lawyer Man (1932).avi": 52436992, ".Torrent Exclusively for DesiTorrents.com & ExtraTorrent.cc.txt": 58, "Lawyer Man (1932) Xvid - William Powell, Joan Blondell [DDR].avi": 734347264}
创建时间: 2018-12-29 18:32:45 大小:750.34 MB 文件数量:3 热度:7 最近下载:2025-03-14 10:59:02
    {"VIDEO_TS.BUP": 12288, "VIDEO_TS.IFO": 12288, "VTS_01_0.BUP": 20480, "VTS_01_0.IFO": 20480, "VTS_01_0.VOB": 25577472, "VTS_01_1.VOB": 17913856, "VTS_02_0.BUP": 18432, "VTS_02_0.IFO": 18432, "VTS_02_0.VOB": 116736, "VTS_02_1.VOB": 1638400, "VTS_03_0.BUP": ...
创建时间: 2018-12-29 18:40:09 大小:4.04 GB 文件数量:18 热度:10 最近下载:2025-02-11 10:54:04
    {"The Vengeance of Fu Manchu (1969) Xvid DvDRip [DDR].avi": 734021632}
创建时间: 2018-12-29 18:40:10 大小:700.02 MB 文件数量:1 热度:8 最近下载:2025-02-20 22:59:01